createdAt,value
2019-01-18T00:00:14.690Z,54.50
2019-01-18T00:02:43.613Z,54.40
2019-01-18T00:05:12.311Z,54.20
2019-01-18T00:07:40.990Z,54.20
2019-01-18T00:10:10.583Z,54.40
2019-01-18T00:12:39.262Z,53.90
2019-01-18T00:15:11.611Z,54.20
2019-01-18T00:17:40.295Z,54.20
2019-01-18T00:20:14.479Z,54.30
2019-01-18T00:22:43.256Z,54.20
2019-01-18T00:25:11.959Z,54.40
2019-01-18T00:27:40.640Z,54.30
2019-01-18T00:30:12.597Z,54.40
2019-01-18T00:32:41.281Z,54.70
2019-01-18T00:35:10.067Z,54.60
2019-01-18T00:37:38.753Z,54.90
2019-01-18T00:40:18.787Z,55.00
2019-01-18T00:42:47.439Z,55.20
2019-01-18T00:45:18.335Z,55.20
2019-01-18T00:47:46.996Z,55.10
2019-01-18T00:50:20.432Z,55.20
2019-01-18T00:52:49.152Z,54.90
2019-01-18T00:55:19.246Z,55.40
2019-01-18T00:57:48.837Z,55.20
2019-01-18T01:00:23.186Z,55.20
2019-01-18T01:02:52.160Z,55.20
2019-01-18T01:05:21.472Z,55.30
2019-01-18T01:07:50.161Z,55.40
2019-01-18T01:10:18.864Z,55.40
2019-01-18T01:12:47.538Z,55.50
2019-01-18T01:15:19.300Z,55.40
2019-01-18T01:17:48.394Z,55.30
2019-01-18T01:20:19.662Z,55.30
2019-01-18T01:22:48.749Z,55.50
2019-01-18T01:25:17.674Z,55.20
2019-01-18T01:27:46.537Z,55.30
2019-01-18T01:30:23.348Z,55.40
2019-01-18T01:32:52.437Z,55.20
2019-01-18T01:35:21.530Z,55.20
2019-01-18T01:37:50.223Z,55.50
2019-01-18T01:40:21.879Z,55.50
2019-01-18T01:42:50.547Z,55.70
2019-01-18T01:45:19.336Z,55.40
2019-01-18T01:47:48.014Z,55.30
2019-01-18T01:50:22.194Z,55.10
2019-01-18T01:52:50.856Z,55.20
2019-01-18T01:55:19.662Z,55.20
2019-01-18T01:57:48.351Z,55.10
2019-01-18T02:00:25.339Z,55.30
2019-01-18T02:02:54.012Z,55.40
2019-01-18T02:05:22.814Z,55.50
2019-01-18T02:07:51.773Z,55.60
2019-01-18T02:10:20.868Z,55.70
2019-01-18T02:12:49.579Z,55.50
2019-01-18T02:15:23.409Z,55.60
2019-01-18T02:17:52.204Z,55.50
2019-01-18T02:20:22.369Z,55.60
2019-01-18T02:22:51.780Z,55.40
2019-01-18T02:25:20.549Z,55.60
2019-01-18T02:27:49.265Z,55.90
2019-01-18T02:30:20.527Z,55.80
2019-01-18T02:32:49.235Z,55.90
2019-01-18T02:35:17.945Z,55.90
2019-01-18T02:37:46.701Z,56.20
2019-01-18T02:40:16.069Z,56.80
2019-01-18T02:42:45.053Z,56.20
2019-01-18T02:45:22.207Z,56.00
2019-01-18T02:47:50.968Z,55.90
2019-01-18T02:50:19.680Z,56.10
2019-01-18T02:55:42.017Z,56.40
2019-01-18T02:58:10.678Z,56.40
2019-01-18T03:00:39.392Z,56.30
2019-01-18T03:03:08.123Z,56.00
2019-01-18T03:05:36.792Z,55.90
2019-01-18T03:08:05.604Z,55.80
2019-01-18T03:10:34.284Z,55.60
2019-01-18T03:13:03.010Z,55.60
2019-01-18T03:15:31.670Z,55.70
2019-01-18T03:18:00.386Z,55.90
2019-01-18T03:20:29.182Z,56.10
2019-01-18T03:22:59.139Z,56.00
2019-01-18T03:25:28.011Z,56.20
2019-01-18T03:27:56.731Z,56.10
2019-01-18T03:30:25.457Z,55.80
2019-01-18T03:32:54.133Z,55.80
2019-01-18T03:35:23.293Z,55.70
2019-01-18T03:37:51.965Z,55.90
2019-01-18T03:40:21.298Z,55.80
2019-01-18T03:42:50.319Z,55.60
2019-01-18T03:45:20.212Z,55.80
2019-01-18T03:47:49.190Z,55.90
2019-01-18T03:50:23.454Z,56.10
2019-01-18T03:52:52.189Z,55.70
2019-01-18T03:55:21.215Z,55.60
2019-01-18T03:57:49.888Z,55.60
2019-01-18T04:00:26.998Z,55.60
2019-01-18T04:02:55.675Z,55.60
2019-01-18T04:05:24.370Z,55.50
2019-01-18T04:07:53.164Z,55.40
2019-01-18T04:10:22.870Z,55.40
2019-01-18T04:12:51.832Z,55.50
2019-01-18T04:15:22.676Z,55.50
2019-01-18T04:17:51.506Z,55.10
2019-01-18T04:20:21.650Z,54.80
2019-01-18T04:22:50.346Z,54.60
2019-01-18T04:25:20.604Z,54.50
2019-01-18T04:27:49.357Z,54.50
2019-01-18T04:30:20.959Z,54.50
2019-01-18T04:32:49.840Z,54.40
2019-01-18T04:35:18.492Z,54.10
2019-01-18T04:37:47.202Z,53.90
2019-01-18T04:40:24.392Z,53.70
2019-01-18T04:42:53.077Z,53.60
2019-01-18T04:45:22.263Z,53.80
2019-01-18T04:47:50.962Z,53.50
2019-01-18T04:50:25.016Z,53.80
2019-01-18T04:52:53.711Z,53.70
2019-01-18T04:55:22.376Z,53.80
2019-01-18T04:57:51.217Z,53.50
2019-01-18T05:00:22.453Z,53.50
2019-01-18T05:02:51.284Z,53.70
2019-01-18T05:05:19.980Z,53.70
2019-01-18T05:07:48.728Z,53.50
2019-01-18T05:10:22.892Z,53.50
2019-01-18T05:12:51.603Z,53.30
2019-01-18T05:15:28.675Z,53.30
2019-01-18T05:17:57.451Z,53.40
2019-01-18T05:20:26.130Z,53.20
2019-01-18T05:22:54.831Z,53.50
2019-01-18T05:25:23.516Z,53.20
2019-01-18T05:27:52.221Z,53.10
2019-01-18T05:30:23.082Z,53.10
2019-01-18T05:32:55.073Z,53.50
2019-01-18T05:35:23.755Z,53.50
2019-01-18T05:37:52.460Z,53.20
2019-01-18T05:40:22.519Z,53.10
2019-01-18T05:42:51.254Z,53.40
2019-01-18T05:45:22.228Z,53.40
2019-01-18T05:47:51.324Z,53.20
2019-01-18T05:50:27.688Z,53.20
2019-01-18T05:52:56.388Z,53.10
2019-01-18T05:55:25.190Z,53.10
2019-01-18T05:57:53.870Z,52.90
2019-01-18T06:00:35.035Z,53.10
2019-01-18T06:03:03.821Z,53.20
2019-01-18T06:05:34.788Z,53.30
2019-01-18T06:08:03.483Z,53.40
2019-01-18T06:10:32.180Z,53.20
2019-01-18T06:13:00.931Z,52.90
2019-01-18T06:15:29.613Z,53.20
2019-01-18T06:17:58.317Z,53.10
2019-01-18T06:20:27.121Z,53.30
2019-01-18T06:22:55.871Z,53.30
2019-01-18T06:25:24.855Z,53.10
2019-01-18T06:27:54.109Z,52.90
2019-01-18T06:30:22.909Z,53.10
2019-01-18T06:32:51.710Z,53.30
2019-01-18T06:35:20.570Z,53.10
2019-01-18T06:37:49.272Z,53.00
2019-01-18T06:40:20.204Z,53.20
2019-01-18T06:42:49.150Z,53.30
2019-01-18T06:45:20.604Z,53.20
2019-01-18T06:47:49.286Z,53.20
2019-01-18T06:50:19.465Z,53.20
2019-01-18T06:52:48.175Z,53.10
2019-01-18T06:55:16.971Z,53.20
2019-01-18T06:57:46.433Z,53.20
2019-01-18T07:00:21.306Z,53.40
2019-01-18T07:02:50.010Z,53.10
2019-01-18T07:05:18.677Z,53.10
2019-01-18T07:07:49.567Z,53.10
2019-01-18T07:10:21.040Z,53.20
2019-01-18T07:12:49.938Z,53.90
2019-01-18T07:15:18.740Z,53.20
2019-01-18T07:17:47.471Z,53.30
2019-01-18T07:20:18.042Z,53.00
2019-01-18T07:22:46.935Z,53.20
2019-01-18T07:25:18.370Z,53.10
2019-01-18T07:27:47.132Z,53.20
2019-01-18T07:30:24.717Z,53.00
2019-01-18T07:32:53.454Z,53.30
2019-01-18T07:35:22.173Z,53.10
2019-01-18T07:37:50.962Z,53.20
2019-01-18T07:40:19.705Z,53.20
2019-01-18T07:42:48.359Z,53.30
2019-01-18T07:45:20.081Z,53.30
2019-01-18T07:47:48.856Z,53.30
2019-01-18T07:50:20.050Z,53.20
2019-01-18T07:52:48.358Z,53.00
2019-01-18T07:55:17.057Z,53.30
2019-01-18T07:57:45.748Z,53.20
2019-01-18T08:00:20.434Z,53.20
2019-01-18T08:02:49.098Z,53.10
2019-01-18T08:05:18.244Z,53.70
2019-01-18T08:07:47.096Z,53.20
2019-01-18T08:10:18.015Z,53.10
2019-01-18T08:12:46.710Z,53.20
2019-01-18T08:15:23.745Z,53.60
2019-01-18T08:17:52.458Z,53.30
2019-01-18T08:20:25.624Z,53.40
2019-01-18T08:22:55.145Z,53.50
2019-01-18T08:25:23.825Z,54.00
2019-01-18T08:27:53.151Z,53.40
2019-01-18T08:30:29.647Z,53.20
2019-01-18T08:32:58.335Z,53.30
2019-01-18T08:35:27.924Z,53.20
2019-01-18T08:37:56.603Z,53.40
2019-01-18T08:40:29.873Z,53.30
2019-01-18T08:42:58.560Z,53.40
2019-01-18T08:45:30.133Z,53.60
2019-01-18T08:47:58.835Z,53.60
2019-01-18T08:50:27.539Z,53.70
2019-01-18T08:52:56.222Z,53.90
2019-01-18T08:55:24.906Z,54.20
2019-01-18T08:57:53.589Z,53.70
2019-01-18T09:00:27.711Z,53.70
2019-01-18T09:02:56.436Z,53.80
2019-01-18T09:05:29.115Z,53.60
2019-01-18T09:07:57.798Z,53.50
2019-01-18T09:10:29.460Z,53.50
2019-01-18T09:12:58.134Z,53.40
2019-01-18T09:15:26.861Z,53.50
2019-01-18T09:17:55.678Z,53.70
2019-01-18T09:20:31.824Z,53.70
2019-01-18T09:23:00.531Z,53.90
2019-01-18T09:25:29.212Z,53.90
2019-01-18T09:27:57.987Z,54.10
2019-01-18T09:30:33.288Z,54.00
2019-01-18T09:33:03.068Z,54.00
2019-01-18T09:35:32.464Z,54.50
2019-01-18T09:38:02.337Z,54.10
2019-01-18T09:40:32.966Z,53.90
2019-01-18T09:43:01.646Z,53.80
2019-01-18T09:45:30.543Z,53.60
2019-01-18T09:47:59.222Z,53.70
2019-01-18T09:50:30.854Z,53.40
2019-01-18T09:52:59.968Z,53.50
2019-01-18T09:55:28.631Z,53.50
2019-01-18T09:57:57.323Z,54.30
2019-01-18T10:00:28.678Z,53.70
2019-01-18T10:02:57.533Z,53.60
2019-01-18T10:05:26.244Z,53.80
2019-01-18T10:07:55.060Z,53.60
2019-01-18T10:10:24.037Z,53.70
2019-01-18T10:12:54.291Z,53.50
2019-01-18T10:15:25.685Z,53.50
2019-01-18T10:18:00.425Z,53.30
2019-01-18T10:20:28.561Z,53.20
2019-01-18T10:22:59.165Z,53.20
2019-01-18T10:25:29.475Z,52.90
2019-01-18T10:27:58.146Z,53.20
2019-01-18T10:30:29.553Z,52.90
2019-01-18T10:33:00.386Z,52.80
2019-01-18T10:35:29.705Z,52.80
2019-01-18T10:37:58.377Z,52.70
2019-01-18T10:40:27.112Z,52.60
2019-01-18T10:42:55.819Z,52.70
2019-01-18T10:45:24.551Z,52.80
2019-01-18T10:47:53.223Z,53.40
2019-01-18T10:50:32.184Z,52.80
2019-01-18T10:53:00.892Z,52.60
2019-01-18T10:55:29.701Z,52.50
2019-01-18T10:57:58.430Z,52.10
2019-01-18T11:00:29.305Z,51.80
2019-01-18T11:02:58.099Z,51.50
2019-01-18T11:05:26.995Z,51.70
2019-01-18T11:07:55.704Z,51.40
2019-01-18T11:10:24.381Z,51.70
2019-01-18T11:12:53.298Z,51.40
2019-01-18T11:15:24.063Z,51.50
2019-01-18T11:17:52.779Z,51.40
2019-01-18T11:20:27.326Z,51.30
2019-01-18T11:22:57.599Z,51.30
2019-01-18T11:25:31.788Z,51.00
2019-01-18T11:27:56.715Z,50.80
2019-01-18T11:30:25.439Z,50.70
2019-01-18T11:32:54.248Z,50.50
2019-01-18T11:35:23.003Z,50.40
2019-01-18T11:37:51.818Z,50.50
2019-01-18T11:40:22.293Z,50.30
2019-01-18T11:42:51.008Z,50.20
2019-01-18T11:45:19.876Z,49.80
2019-01-18T11:47:48.595Z,50.10
2019-01-18T11:50:22.779Z,50.10
2019-01-18T11:52:51.591Z,50.00
2019-01-18T11:55:20.304Z,50.10
2019-01-18T11:57:49.031Z,50.10
2019-01-18T12:00:20.009Z,49.70
2019-01-18T12:02:48.817Z,49.30
2019-01-18T12:05:17.510Z,49.10
2019-01-18T12:07:46.177Z,48.90
2019-01-18T12:10:29.302Z,48.60
2019-01-18T12:12:57.991Z,48.60
2019-01-18T12:15:26.795Z,48.50
2019-01-18T12:17:55.471Z,48.40
2019-01-18T12:20:29.258Z,48.20
2019-01-18T12:22:57.936Z,48.00
2019-01-18T12:25:26.629Z,47.80
2019-01-18T12:27:55.299Z,47.50
2019-01-18T12:30:26.781Z,47.40
2019-01-18T12:32:55.568Z,47.50
2019-01-18T12:35:24.357Z,47.50
2019-01-18T12:37:53.158Z,47.30
2019-01-18T12:40:21.863Z,47.30
2019-01-18T12:42:50.557Z,46.90
2019-01-18T12:45:21.044Z,46.50
2019-01-18T12:47:49.871Z,46.40
2019-01-18T12:50:21.267Z,46.90
2019-01-18T12:52:50.128Z,45.80
2019-01-18T12:55:21.445Z,45.80
2019-01-18T12:57:50.133Z,45.70
2019-01-18T13:00:21.441Z,45.50
2019-01-18T13:02:50.107Z,45.40
2019-01-18T13:05:21.498Z,45.60
2019-01-18T13:07:50.280Z,45.60
2019-01-18T13:10:19.063Z,45.20
2019-01-18T13:12:47.873Z,45.20
2019-01-18T13:15:19.497Z,45.10
2019-01-18T13:17:48.192Z,45.20
2019-01-18T13:20:16.922Z,45.40
2019-01-18T13:22:45.648Z,45.40
2019-01-18T13:25:16.136Z,45.30
2019-01-18T13:27:44.941Z,45.40
2019-01-18T13:30:15.807Z,45.50
2019-01-18T13:32:44.710Z,45.40
2019-01-18T13:35:13.588Z,45.40
2019-01-18T13:37:42.285Z,45.20
2019-01-18T13:40:14.031Z,45.40
2019-01-18T13:42:42.820Z,45.30
2019-01-18T13:45:12.890Z,45.00
2019-01-18T13:47:42.544Z,45.00
2019-01-18T13:50:18.367Z,45.00
2019-01-18T13:52:48.639Z,44.90
2019-01-18T13:55:26.004Z,44.90
2019-01-18T13:57:54.730Z,44.90
2019-01-18T14:00:23.437Z,44.70
2019-01-18T14:02:52.109Z,44.70
2019-01-18T14:05:20.892Z,44.60
2019-01-18T14:07:53.254Z,44.50
2019-01-18T14:10:22.779Z,44.80
2019-01-18T14:12:51.561Z,45.10
2019-01-18T14:15:21.810Z,44.30
2019-01-18T14:17:50.619Z,44.60
2019-01-18T14:20:21.603Z,44.50
2019-01-18T14:22:50.790Z,44.50
2019-01-18T14:25:19.489Z,44.30
2019-01-18T14:27:48.208Z,44.50
2019-01-18T14:30:25.637Z,44.30
2019-01-18T14:32:55.588Z,44.40
2019-01-18T14:35:25.028Z,44.60
2019-01-18T14:37:54.052Z,44.10
2019-01-18T14:40:22.888Z,44.30
2019-01-18T14:42:53.155Z,44.50
2019-01-18T14:45:24.721Z,45.00
2019-01-18T14:47:53.445Z,44.40
2019-01-18T14:50:22.117Z,44.50
2019-01-18T14:52:50.918Z,44.40
2019-01-18T14:55:19.995Z,44.50
2019-01-18T14:57:48.895Z,44.50
2019-01-18T15:00:20.384Z,44.60
2019-01-18T15:02:49.189Z,44.70
2019-01-18T15:05:17.851Z,44.50
2019-01-18T15:07:46.555Z,44.40
2019-01-18T15:10:18.145Z,44.40
2019-01-18T15:12:48.218Z,44.40
2019-01-18T15:15:16.916Z,44.50
2019-01-18T15:17:47.252Z,44.40
2019-01-18T15:20:21.518Z,44.60
2019-01-18T15:22:50.335Z,44.70
2019-01-18T15:25:19.144Z,44.70
2019-01-18T15:27:48.056Z,44.60
2019-01-18T15:30:22.148Z,44.70
2019-01-18T15:32:50.851Z,44.70
2019-01-18T15:35:22.027Z,44.80
2019-01-18T15:37:50.764Z,44.90
2019-01-18T15:40:24.883Z,44.80
2019-01-18T15:42:53.798Z,44.90
2019-01-18T15:45:22.615Z,44.90
2019-01-18T15:47:51.321Z,45.00
2019-01-18T15:50:23.040Z,45.40
2019-01-18T15:52:51.831Z,45.40
2019-01-18T15:55:20.709Z,45.40
2019-01-18T15:57:49.517Z,45.60
2019-01-18T16:00:24.193Z,45.70
2019-01-18T16:02:52.930Z,45.80
2019-01-18T16:05:21.642Z,46.10
2019-01-18T16:07:50.353Z,46.30
2019-01-18T16:10:19.024Z,46.40
2019-01-18T16:12:47.749Z,46.70
2019-01-18T16:15:25.724Z,46.60
2019-01-18T16:17:54.443Z,46.80
2019-01-18T16:20:24.810Z,46.40
2019-01-18T16:22:53.514Z,46.70
2019-01-18T16:25:28.016Z,46.90
2019-01-18T16:27:56.739Z,46.80
2019-01-18T16:30:26.610Z,47.00
2019-01-18T16:32:57.263Z,47.20
2019-01-18T16:35:26.245Z,47.10
2019-01-18T16:37:55.128Z,47.60
2019-01-18T16:40:32.539Z,47.60
2019-01-18T16:43:07.623Z,47.80
2019-01-18T16:45:36.312Z,47.60
2019-01-18T16:48:05.091Z,47.70
2019-01-18T16:50:33.820Z,47.90
2019-01-18T16:53:02.500Z,47.90
2019-01-18T16:55:31.168Z,47.80
2019-01-18T16:57:59.982Z,47.90
2019-01-18T17:00:41.115Z,47.50
2019-01-18T17:03:09.828Z,47.90
2019-01-18T17:05:38.617Z,47.70
2019-01-18T17:08:07.792Z,47.70
2019-01-18T17:10:36.503Z,47.80
2019-01-18T17:13:05.676Z,47.60
2019-01-18T17:15:34.404Z,47.70
2019-01-18T17:18:03.134Z,47.90
2019-01-18T17:20:35.665Z,47.80
2019-01-18T17:23:04.415Z,48.00
2019-01-18T17:25:33.102Z,48.40
2019-01-18T17:28:01.778Z,47.80
2019-01-18T17:30:30.545Z,48.00
2019-01-18T17:32:59.424Z,48.00
2019-01-18T17:35:37.365Z,47.80
2019-01-18T17:38:08.992Z,47.90
2019-01-18T17:40:40.664Z,48.00
2019-01-18T17:43:15.239Z,48.00
2019-01-18T17:46:12.288Z,48.30
2019-01-18T17:48:52.499Z,48.00
2019-01-18T17:51:39.043Z,47.80
2019-01-18T17:54:16.683Z,47.70
2019-01-18T17:56:51.255Z,48.00
2019-01-18T17:59:39.531Z,48.20
2019-01-18T18:02:41.691Z,48.20
2019-01-18T18:05:28.281Z,48.20
2019-01-18T18:08:06.011Z,48.10
2019-01-18T18:10:54.594Z,47.90
2019-01-18T18:13:45.119Z,48.30
2019-01-18T18:16:28.668Z,48.10
2019-01-18T18:19:15.587Z,48.20
2019-01-18T18:21:49.961Z,48.10
2019-01-18T18:24:21.671Z,48.20
2019-01-18T18:27:17.690Z,48.30
2019-01-18T18:29:49.435Z,48.10
2019-01-18T18:32:37.867Z,48.20
2019-01-18T18:35:24.766Z,48.20
2019-01-18T18:38:08.574Z,48.30
2019-01-18T18:40:55.262Z,47.80
2019-01-18T18:43:30.014Z,48.30
2019-01-18T18:46:18.307Z,48.20
2019-01-18T18:48:59.086Z,48.40
2019-01-18T18:51:58.275Z,48.20
2019-01-18T18:54:52.546Z,48.40
2019-01-18T18:57:30.044Z,48.30
2019-01-18T19:00:18.400Z,48.60
2019-01-18T19:03:05.122Z,48.60
2019-01-18T19:05:59.695Z,49.20
2019-01-18T19:08:37.179Z,48.70
2019-01-18T19:11:36.225Z,48.60
2019-01-18T19:14:16.963Z,48.70
2019-01-18T19:16:48.628Z,48.80
2019-01-18T19:19:26.288Z,48.90
2019-01-18T19:22:14.795Z,48.70
2019-01-18T19:25:10.907Z,48.60
2019-01-18T19:27:42.582Z,48.60
2019-01-18T19:30:35.329Z,48.10
2019-01-18T19:33:19.270Z,48.40
2019-01-18T19:36:13.718Z,48.40
2019-01-18T19:38:45.366Z,48.20
2019-01-18T19:41:16.984Z,48.20
2019-01-18T19:44:08.343Z,48.40
2019-01-18T19:46:58.157Z,48.30
2019-01-18T19:49:35.723Z,48.10
2019-01-18T19:52:13.392Z,48.20
2019-01-18T19:54:48.031Z,48.30
2019-01-18T19:57:34.379Z,48.20
2019-01-18T20:00:11.936Z,49.00
2019-01-18T20:02:55.425Z,48.20
2019-01-18T20:05:38.656Z,48.30
2019-01-18T20:08:24.922Z,48.30
2019-01-18T20:11:17.834Z,48.30
2019-01-18T20:14:01.174Z,48.50
2019-01-18T20:16:41.510Z,48.60
2019-01-18T20:19:16.202Z,48.60
2019-01-18T20:21:50.705Z,48.70
2019-01-18T20:24:45.066Z,48.70
2019-01-18T20:27:38.036Z,48.60
2019-01-18T20:30:21.229Z,48.90
2019-01-18T20:33:01.772Z,48.90
2019-01-18T20:36:02.696Z,49.10
2019-01-18T20:38:46.573Z,48.90
2019-01-18T20:41:27.238Z,49.10
2019-01-18T20:44:01.772Z,49.00
2019-01-18T20:46:41.470Z,49.10
2019-01-18T20:49:21.859Z,48.90
2019-01-18T20:52:11.587Z,48.90
2019-01-18T20:54:58.533Z,48.80
2019-01-18T20:57:36.237Z,48.90
2019-01-18T21:00:10.968Z,48.90
2019-01-18T21:03:03.445Z,48.70
2019-01-18T21:05:38.026Z,48.70
2019-01-18T21:08:15.823Z,48.70
2019-01-18T21:11:05.755Z,48.80
2019-01-18T21:13:46.576Z,48.80
2019-01-18T21:16:18.241Z,49.00
2019-01-18T21:19:02.158Z,48.80
2019-01-18T21:21:56.769Z,49.40
2019-01-18T21:24:54.276Z,49.00
2019-01-18T21:27:35.162Z,49.10
2019-01-18T21:30:16.076Z,49.10
2019-01-18T21:32:50.770Z,49.30
2019-01-18T21:35:28.686Z,49.50
2019-01-18T21:38:23.139Z,49.70
2019-01-18T21:40:54.819Z,49.50
2019-01-18T21:43:29.521Z,49.70
2019-01-18T21:46:23.996Z,49.50
2019-01-18T21:49:10.862Z,49.60
2019-01-18T21:51:57.165Z,50.00
2019-01-18T21:54:45.656Z,49.60
2019-01-18T21:57:23.190Z,49.50
2019-01-18T22:00:19.123Z,49.70
2019-01-18T22:02:56.784Z,49.60
2019-01-18T22:05:48.111Z,49.50
2019-01-18T22:08:41.137Z,49.70
2019-01-18T22:11:35.612Z,49.80
2019-01-18T22:14:30.200Z,49.70
2019-01-18T22:17:07.383Z,49.70
2019-01-18T22:19:39.023Z,49.70
2019-01-18T22:22:28.960Z,49.80
2019-01-18T22:25:10.029Z,49.70
2019-01-18T22:28:10.707Z,50.00
2019-01-18T22:30:57.525Z,49.80
2019-01-18T22:33:49.220Z,49.80
2019-01-18T22:36:42.284Z,49.80
2019-01-18T22:39:25.983Z,49.60
2019-01-18T22:42:14.337Z,49.90
2019-01-18T22:44:57.583Z,49.80
2019-01-18T22:47:51.989Z,49.80
2019-01-18T22:50:41.842Z,49.80
2019-01-18T22:53:30.368Z,50.00
2019-01-18T22:56:10.967Z,50.00
2019-01-18T22:58:51.270Z,50.00
2019-01-18T23:01:35.160Z,50.50
2019-01-18T23:04:21.882Z,50.00
2019-01-18T23:07:10.321Z,50.30
2019-01-18T23:09:48.081Z,49.90
2019-01-18T23:12:28.831Z,50.10
2019-01-18T23:15:21.432Z,50.00
2019-01-18T23:17:58.584Z,50.10
2019-01-18T23:20:39.415Z,49.90
2019-01-18T23:23:16.872Z,49.80
2019-01-18T23:26:08.204Z,49.70
2019-01-18T23:28:58.163Z,49.90
2019-01-18T23:31:29.826Z,49.80
2019-01-18T23:34:10.691Z,49.80
2019-01-18T23:36:44.824Z,49.90
2019-01-18T23:39:22.466Z,49.90
2019-01-18T23:42:12.219Z,49.90
2019-01-18T23:44:56.020Z,49.70
2019-01-18T23:47:30.847Z,50.00
2019-01-18T23:50:18.838Z,49.90
2019-01-18T23:52:56.176Z,49.80
2019-01-18T23:55:37.612Z,49.80
2019-01-18T23:58:31.793Z,49.70
